sensor_id;sensor_type;location;lat;lon;timestamp;P1;P2;P0
80861;PMS5003;71798;54.942;73.444;2024-02-26T01:16:57;76.00;61.00;33.00
80861;PMS5003;71798;54.942;73.444;2024-02-26T01:19:23;82.50;67.00;36.50
80861;PMS5003;71798;54.942;73.444;2024-02-26T01:21:49;52.25;41.00;23.50
80861;PMS5003;71798;54.942;73.444;2024-02-26T01:24:16;70.25;54.25;31.25
80861;PMS5003;71798;54.942;73.444;2024-02-26T01:26:42;72.00;57.00;34.50
80861;PMS5003;71798;54.942;73.444;2024-02-26T01:29:09;73.00;56.75;34.25
80861;PMS5003;71798;54.942;73.444;2024-02-26T01:31:35;64.00;49.00;30.00
80861;PMS5003;71798;54.942;73.444;2024-02-26T01:34:01;80.00;67.00;39.00
80861;PMS5003;71798;54.942;73.444;2024-02-26T01:36:28;70.50;52.50;26.75
80861;PMS5003;71798;54.942;73.444;2024-02-26T01:38:54;89.25;73.00;41.00
80861;PMS5003;71798;54.942;73.444;2024-02-26T01:41:20;74.75;57.25;32.50
80861;PMS5003;71798;54.942;73.444;2024-02-26T01:43:46;101.50;81.50;44.00
80861;PMS5003;71798;54.942;73.444;2024-02-26T01:46:13;94.75;77.50;42.75
80861;PMS5003;71798;54.942;73.444;2024-02-26T01:48:41;101.50;85.00;46.00
80861;PMS5003;71798;54.942;73.444;2024-02-26T01:51:07;79.25;64.25;36.00
80861;PMS5003;71798;54.942;73.444;2024-02-26T01:53:33;86.50;72.00;41.50
80861;PMS5003;71798;54.942;73.444;2024-02-26T01:56:00;93.00;76.25;43.00
80861;PMS5003;71798;54.942;73.444;2024-02-26T01:58:26;96.75;82.00;49.00
80861;PMS5003;71798;54.942;73.444;2024-02-26T02:00:52;89.00;74.00;41.00
80861;PMS5003;71798;54.942;73.444;2024-02-26T02:03:19;73.75;57.25;32.75
80861;PMS5003;71798;54.942;73.444;2024-02-26T02:05:45;123.00;99.00;53.25
80861;PMS5003;71798;54.942;73.444;2024-02-26T02:08:12;116.50;95.50;53.50
80861;PMS5003;71798;54.942;73.444;2024-02-26T02:10:41;81.25;66.00;35.25
80861;PMS5003;71798;54.942;73.444;2024-02-26T02:13:07;96.00;79.00;45.00
80861;PMS5003;71798;54.942;73.444;2024-02-26T02:15:34;107.50;88.00;50.75
80861;PMS5003;71798;54.942;73.444;2024-02-26T02:18:00;114.00;97.00;57.00
80861;PMS5003;71798;54.942;73.444;2024-02-26T02:20:36;111.00;90.00;51.00
80861;PMS5003;71798;54.942;73.444;2024-02-26T02:23:02;100.50;82.00;45.50
80861;PMS5003;71798;54.942;73.444;2024-02-26T02:25:28;118.00;97.25;53.50
80861;PMS5003;71798;54.942;73.444;2024-02-26T02:27:55;108.00;88.00;48.00
80861;PMS5003;71798;54.942;73.444;2024-02-26T02:30:22;115.00;93.00;54.00
80861;PMS5003;71798;54.942;73.444;2024-02-26T02:32:50;112.50;92.50;51.00
80861;PMS5003;71798;54.942;73.444;2024-02-26T02:35:16;135.50;108.50;60.50
80861;PMS5003;71798;54.942;73.444;2024-02-26T02:37:43;147.25;117.50;66.00
80861;PMS5003;71798;54.942;73.444;2024-02-26T02:40:09;129.00;104.50;56.75
80861;PMS5003;71798;54.942;73.444;2024-02-26T02:42:35;133.25;108.00;59.50
80861;PMS5003;71798;54.942;73.444;2024-02-26T02:45:01;136.50;110.25;58.75
80861;PMS5003;71798;54.942;73.444;2024-02-26T02:47:28;134.75;110.75;64.00
80861;PMS5003;71798;54.942;73.444;2024-02-26T02:49:54;122.00;101.50;57.50
80861;PMS5003;71798;54.942;73.444;2024-02-26T02:52:20;116.75;97.50;53.75
80861;PMS5003;71798;54.942;73.444;2024-02-26T02:54:46;115.75;92.75;52.75
80861;PMS5003;71798;54.942;73.444;2024-02-26T02:57:13;102.75;87.25;51.00
80861;PMS5003;71798;54.942;73.444;2024-02-26T02:59:39;107.50;89.75;52.00
80861;PMS5003;71798;54.942;73.444;2024-02-26T03:02:05;106.50;87.50;50.75
80861;PMS5003;71798;54.942;73.444;2024-02-26T03:04:32;98.75;82.25;46.00
80861;PMS5003;71798;54.942;73.444;2024-02-26T03:06:58;94.75;78.75;45.50
80861;PMS5003;71798;54.942;73.444;2024-02-26T03:09:26;110.00;88.00;53.00
80861;PMS5003;71798;54.942;73.444;2024-02-26T03:11:52;101.50;85.00;48.75
80861;PMS5003;71798;54.942;73.444;2024-02-26T03:14:18;96.50;76.75;43.00
80861;PMS5003;71798;54.942;73.444;2024-02-26T03:16:45;109.75;91.00;51.75
80861;PMS5003;71798;54.942;73.444;2024-02-26T03:19:13;115.75;95.00;52.00
80861;PMS5003;71798;54.942;73.444;2024-02-26T03:21:40;148.25;122.25;66.75
80861;PMS5003;71798;54.942;73.444;2024-02-26T03:24:06;139.25;113.75;62.25
80861;PMS5003;71798;54.942;73.444;2024-02-26T03:26:34;109.00;88.75;48.50
80861;PMS5003;71798;54.942;73.444;2024-02-26T03:29:01;123.75;99.25;55.50
80861;PMS5003;71798;54.942;73.444;2024-02-26T03:31:28;143.75;115.75;66.00
80861;PMS5003;71798;54.942;73.444;2024-02-26T03:33:54;108.00;88.00;50.00
80861;PMS5003;71798;54.942;73.444;2024-02-26T03:36:21;116.00;93.50;52.00
80861;PMS5003;71798;54.942;73.444;2024-02-26T03:38:49;120.25;98.00;55.00
80861;PMS5003;71798;54.942;73.444;2024-02-26T03:41:16;130.75;106.75;62.00
80861;PMS5003;71798;54.942;73.444;2024-02-26T03:43:42;100.75;85.00;48.50
80861;PMS5003;71798;54.942;73.444;2024-02-26T03:46:08;115.75;94.75;54.50
80861;PMS5003;71798;54.942;73.444;2024-02-26T03:48:40;102.25;82.75;47.00
80861;PMS5003;71798;54.942;73.444;2024-02-26T03:51:08;94.50;77.50;45.00
80861;PMS5003;71798;54.942;73.444;2024-02-26T03:53:34;91.00;74.75;43.50
80861;PMS5003;71798;54.942;73.444;2024-02-26T03:56:04;78.75;64.50;38.25
80861;PMS5003;71798;54.942;73.444;2024-02-26T03:58:30;80.50;66.00;37.75
80861;PMS5003;71798;54.942;73.444;2024-02-26T04:00:56;85.75;69.75;41.50
80861;PMS5003;71798;54.942;73.444;2024-02-26T04:03:23;88.50;72.00;40.50
80861;PMS5003;71798;54.942;73.444;2024-02-26T04:05:49;100.00;77.50;44.50
80861;PMS5003;71798;54.942;73.444;2024-02-26T04:08:15;93.50;77.00;43.50
80861;PMS5003;71798;54.942;73.444;2024-02-26T04:10:41;99.75;81.50;46.50
80861;PMS5003;71798;54.942;73.444;2024-02-26T04:13:08;103.75;87.25;52.00
80861;PMS5003;71798;54.942;73.444;2024-02-26T04:15:34;118.00;96.00;54.75
80861;PMS5003;71798;54.942;73.444;2024-02-26T04:18:00;117.00;97.00;56.00
80861;PMS5003;71798;54.942;73.444;2024-02-26T04:20:28;122.25;99.75;55.00
80861;PMS5003;71798;54.942;73.444;2024-02-26T04:22:54;86.25;72.25;38.75
80861;PMS5003;71798;54.942;73.444;2024-02-26T04:25:20;126.00;103.00;58.50
80861;PMS5003;71798;54.942;73.444;2024-02-26T04:27:47;77.00;62.25;34.75
80861;PMS5003;71798;54.942;73.444;2024-02-26T04:30:13;102.00;82.75;48.50
80861;PMS5003;71798;54.942;73.444;2024-02-26T04:32:39;92.75;76.00;43.00
80861;PMS5003;71798;54.942;73.444;2024-02-26T04:35:05;114.75;93.00;53.25
80861;PMS5003;71798;54.942;73.444;2024-02-26T04:37:32;92.00;76.00;44.75
80861;PMS5003;71798;54.942;73.444;2024-02-26T04:40:43;102.00;85.50;50.25
80861;PMS5003;71798;54.942;73.444;2024-02-26T04:43:54;81.00;66.50;37.75
80861;PMS5003;71798;54.942;73.444;2024-02-26T04:47:05;93.25;77.00;44.00
80861;PMS5003;71798;54.942;73.444;2024-02-26T04:50:16;78.00;62.00;35.00
80861;PMS5003;71798;54.942;73.444;2024-02-26T04:53:27;88.00;73.00;43.00
80861;PMS5003;71798;54.942;73.444;2024-02-26T04:59:56;80.50;67.25;37.75
80861;PMS5003;71798;54.942;73.444;2024-02-26T05:03:07;98.00;78.25;46.50
80861;PMS5003;71798;54.942;73.444;2024-02-26T05:06:18;101.75;81.75;46.25
80861;PMS5003;71798;54.942;73.444;2024-02-26T05:09:29;73.00;56.25;32.75
80861;PMS5003;71798;54.942;73.444;2024-02-26T05:16:00;85.00;70.00;38.75
80861;PMS5003;71798;54.942;73.444;2024-02-26T05:19:11;81.75;65.50;37.00
80861;PMS5003;71798;54.942;73.444;2024-02-26T05:22:22;73.00;58.00;35.00
80861;PMS5003;71798;54.942;73.444;2024-02-26T05:25:33;75.50;60.50;34.75
80861;PMS5003;71798;54.942;73.444;2024-02-26T05:28:44;80.00;66.50;38.50
80861;PMS5003;71798;54.942;73.444;2024-02-26T05:31:55;55.00;43.00;24.75
80861;PMS5003;71798;54.942;73.444;2024-02-26T05:35:06;88.00;69.75;38.75
80861;PMS5003;71798;54.942;73.444;2024-02-26T05:38:17;87.00;72.00;41.00
80861;PMS5003;71798;54.942;73.444;2024-02-26T05:44:45;87.00;72.00;44.00
80861;PMS5003;71798;54.942;73.444;2024-02-26T05:47:55;85.25;70.75;39.50
80861;PMS5003;71798;54.942;73.444;2024-02-26T05:51:07;75.00;59.25;34.25
80861;PMS5003;71798;54.942;73.444;2024-02-26T05:54:18;57.75;44.75;25.25
80861;PMS5003;71798;54.942;73.444;2024-02-26T06:00:47;77.00;62.00;36.00
80861;PMS5003;71798;54.942;73.444;2024-02-26T06:03:57;82.25;69.00;38.00
80861;PMS5003;71798;54.942;73.444;2024-02-26T06:07:09;76.50;64.00;37.00
80861;PMS5003;71798;54.942;73.444;2024-02-26T06:10:20;70.50;53.75;33.00
80861;PMS5003;71798;54.942;73.444;2024-02-26T06:16:48;41.00;32.00;17.00
80861;PMS5003;71798;54.942;73.444;2024-02-26T06:19:58;73.75;56.00;32.75
80861;PMS5003;71798;54.942;73.444;2024-02-26T06:23:10;73.25;57.50;33.00
80861;PMS5003;71798;54.942;73.444;2024-02-26T06:26:21;42.00;34.00;21.00
80861;PMS5003;71798;54.942;73.444;2024-02-26T06:32:50;52.00;41.25;25.50
80861;PMS5003;71798;54.942;73.444;2024-02-26T06:36:00;45.25;35.50;21.00
80861;PMS5003;71798;54.942;73.444;2024-02-26T06:39:12;56.00;43.25;26.00
80861;PMS5003;71798;54.942;73.444;2024-02-26T06:42:25;58.50;46.00;28.00
80861;PMS5003;71798;54.942;73.444;2024-02-26T06:45:36;53.75;42.00;26.00
80861;PMS5003;71798;54.942;73.444;2024-02-26T06:48:50;40.00;32.00;20.00
80861;PMS5003;71798;54.942;73.444;2024-02-26T06:52:01;42.00;35.00;21.50
80861;PMS5003;71798;54.942;73.444;2024-02-26T06:55:12;43.00;34.00;22.00
80861;PMS5003;71798;54.942;73.444;2024-02-26T07:01:42;38.00;31.00;20.00
80861;PMS5003;71798;54.942;73.444;2024-02-26T07:04:53;26.75;21.75;13.00
80861;PMS5003;71798;54.942;73.444;2024-02-26T07:08:04;45.75;37.00;23.00
80861;PMS5003;71798;54.942;73.444;2024-02-26T08:24:40;35.50;28.75;17.75
80861;PMS5003;71798;54.942;73.444;2024-02-26T08:27:07;38.00;31.00;19.00
80861;PMS5003;71798;54.942;73.444;2024-02-26T08:29:33;33.00;27.00;18.00
80861;PMS5003;71798;54.942;73.444;2024-02-26T08:31:59;34.25;28.00;18.00
80861;PMS5003;71798;54.942;73.444;2024-02-26T08:34:46;35.00;29.00;19.00
80861;PMS5003;71798;54.942;73.444;2024-02-26T08:37:12;36.00;29.00;17.00
80861;PMS5003;71798;54.942;73.444;2024-02-26T08:39:38;39.00;32.00;20.00
80861;PMS5003;71798;54.942;73.444;2024-02-26T08:42:05;31.75;25.25;16.00
80861;PMS5003;71798;54.942;73.444;2024-02-26T08:44:31;37.00;30.00;18.00
80861;PMS5003;71798;54.942;73.444;2024-02-26T08:46:58;39.75;31.25;20.00
80861;PMS5003;71798;54.942;73.444;2024-02-26T08:49:24;30.50;26.00;16.25
80861;PMS5003;71798;54.942;73.444;2024-02-26T08:51:50;36.50;29.00;16.50
80861;PMS5003;71798;54.942;73.444;2024-02-26T08:54:17;38.50;31.50;20.00
80861;PMS5003;71798;54.942;73.444;2024-02-26T08:56:43;27.50;22.25;12.75
80861;PMS5003;71798;54.942;73.444;2024-02-26T08:59:09;41.00;33.50;20.00
80861;PMS5003;71798;54.942;73.444;2024-02-26T09:01:35;39.00;32.00;21.00
80861;PMS5003;71798;54.942;73.444;2024-02-26T09:04:02;34.50;27.75;16.00
80861;PMS5003;71798;54.942;73.444;2024-02-26T09:06:28;39.00;32.00;21.00
80861;PMS5003;71798;54.942;73.444;2024-02-26T09:08:55;41.00;33.00;21.00
80861;PMS5003;71798;54.942;73.444;2024-02-26T09:11:21;40.50;33.00;21.00
80861;PMS5003;71798;54.942;73.444;2024-02-26T09:13:48;39.00;32.50;21.00
80861;PMS5003;71798;54.942;73.444;2024-02-26T09:16:14;40.75;33.50;22.00
80861;PMS5003;71798;54.942;73.444;2024-02-26T09:18:40;41.25;34.00;22.00
80861;PMS5003;71798;54.942;73.444;2024-02-26T09:21:06;43.00;35.00;22.00
80861;PMS5003;71798;54.942;73.444;2024-02-26T09:23:33;42.00;33.00;21.00
80861;PMS5003;71798;54.942;73.444;2024-02-26T09:26:00;43.00;35.00;21.50
80861;PMS5003;71798;54.942;73.444;2024-02-26T09:28:27;40.25;32.50;20.50
80861;PMS5003;71798;54.942;73.444;2024-02-26T09:30:53;39.50;32.75;21.00
80861;PMS5003;71798;54.942;73.444;2024-02-26T09:33:20;43.50;34.75;22.75
80861;PMS5003;71798;54.942;73.444;2024-02-26T09:35:46;36.00;29.50;17.00
80861;PMS5003;71798;54.942;73.444;2024-02-26T09:38:12;37.00;31.00;20.00
80861;PMS5003;71798;54.942;73.444;2024-02-26T09:40:39;39.25;33.25;22.00
80861;PMS5003;71798;54.942;73.444;2024-02-26T09:43:06;45.00;37.50;23.00
80861;PMS5003;71798;54.942;73.444;2024-02-26T09:45:36;33.00;27.50;16.50
80861;PMS5003;71798;54.942;73.444;2024-02-26T09:48:03;46.00;37.25;23.00
80861;PMS5003;71798;54.942;73.444;2024-02-26T09:50:30;44.50;35.25;23.00
80861;PMS5003;71798;54.942;73.444;2024-02-26T09:52:56;42.25;34.50;23.00
80861;PMS5003;71798;54.942;73.444;2024-02-26T09:55:25;41.50;32.75;21.00
80861;PMS5003;71798;54.942;73.444;2024-02-26T09:57:51;39.00;33.00;20.00
80861;PMS5003;71798;54.942;73.444;2024-02-26T10:00:18;28.75;24.00;17.00
80861;PMS5003;71798;54.942;73.444;2024-02-26T10:02:48;44.75;36.75;23.75
80861;PMS5003;71798;54.942;73.444;2024-02-26T10:05:16;47.75;38.00;24.50
80861;PMS5003;71798;54.942;73.444;2024-02-26T10:07:43;49.00;40.00;26.00
80861;PMS5003;71798;54.942;73.444;2024-02-26T10:10:10;47.00;38.00;24.25
80861;PMS5003;71798;54.942;73.444;2024-02-26T10:12:36;46.25;38.50;24.25
80861;PMS5003;71798;54.942;73.444;2024-02-26T10:15:05;49.75;39.00;25.00
80861;PMS5003;71798;54.942;73.444;2024-02-26T10:17:32;44.00;36.00;23.00
80861;PMS5003;71798;54.942;73.444;2024-02-26T10:20:20;43.50;36.00;24.00
80861;PMS5003;71798;54.942;73.444;2024-02-26T10:22:49;47.00;37.00;23.00
80861;PMS5003;71798;54.942;73.444;2024-02-26T10:25:16;40.00;32.75;21.00
80861;PMS5003;71798;54.942;73.444;2024-02-26T10:27:42;45.00;35.00;22.00
80861;PMS5003;71798;54.942;73.444;2024-02-26T10:32:41;44.25;36.00;23.25
80861;PMS5003;71798;54.942;73.444;2024-02-26T10:35:08;46.00;37.00;24.00
80861;PMS5003;71798;54.942;73.444;2024-02-26T10:37:34;52.25;41.00;25.00
80861;PMS5003;71798;54.942;73.444;2024-02-26T10:40:01;50.00;40.00;25.25
80861;PMS5003;71798;54.942;73.444;2024-02-26T10:42:27;49.50;39.50;24.00
80861;PMS5003;71798;54.942;73.444;2024-02-26T10:44:53;56.75;45.00;29.00
80861;PMS5003;71798;54.942;73.444;2024-02-26T10:47:40;49.50;40.00;25.00
80861;PMS5003;71798;54.942;73.444;2024-02-26T10:50:06;56.75;45.00;29.00
80861;PMS5003;71798;54.942;73.444;2024-02-26T10:52:52;60.75;47.50;29.00
80861;PMS5003;71798;54.942;73.444;2024-02-26T10:55:21;64.00;50.25;30.00
80861;PMS5003;71798;54.942;73.444;2024-02-26T10:57:49;70.00;53.75;32.50
80861;PMS5003;71798;54.942;73.444;2024-02-26T11:00:17;60.75;47.50;29.50
80861;PMS5003;71798;54.942;73.444;2024-02-26T11:02:44;62.00;48.75;31.00
80861;PMS5003;71798;54.942;73.444;2024-02-26T11:05:10;58.50;46.50;29.00
80861;PMS5003;71798;54.942;73.444;2024-02-26T11:07:37;67.00;51.25;32.00
80861;PMS5003;71798;54.942;73.444;2024-02-26T11:10:04;61.50;48.00;29.25
80861;PMS5003;71798;54.942;73.444;2024-02-26T11:12:35;57.75;46.75;29.00
80861;PMS5003;71798;54.942;73.444;2024-02-26T11:15:03;68.75;52.75;33.00
80861;PMS5003;71798;54.942;73.444;2024-02-26T11:17:30;60.00;47.00;29.00
80861;PMS5003;71798;54.942;73.444;2024-02-26T11:19:58;58.00;46.00;28.25
80861;PMS5003;71798;54.942;73.444;2024-02-26T11:22:25;64.00;50.00;32.00
80861;PMS5003;71798;54.942;73.444;2024-02-26T11:24:55;52.00;40.25;24.75
80861;PMS5003;71798;54.942;73.444;2024-02-26T11:27:24;59.00;46.00;29.00
80861;PMS5003;71798;54.942;73.444;2024-02-26T11:29:55;60.25;48.00;31.00
80861;PMS5003;71798;54.942;73.444;2024-02-26T11:32:23;45.00;34.50;20.25
80861;PMS5003;71798;54.942;73.444;2024-02-26T11:34:49;41.25;33.75;22.00
80861;PMS5003;71798;54.942;73.444;2024-02-26T11:37:16;41.50;33.00;20.25
80861;PMS5003;71798;54.942;73.444;2024-02-26T11:39:43;42.00;34.00;22.00
80861;PMS5003;71798;54.942;73.444;2024-02-26T11:42:13;47.00;38.00;24.25
80861;PMS5003;71798;54.942;73.444;2024-02-26T11:44:40;47.25;37.50;23.25
80861;PMS5003;71798;54.942;73.444;2024-02-26T11:47:11;49.00;39.00;25.00
80861;PMS5003;71798;54.942;73.444;2024-02-26T11:49:37;51.00;40.50;25.00
80861;PMS5003;71798;54.942;73.444;2024-02-26T11:52:08;43.25;35.25;21.00
80861;PMS5003;71798;54.942;73.444;2024-02-26T11:54:53;52.00;41.00;26.00
80861;PMS5003;71798;54.942;73.444;2024-02-26T11:59:56;60.50;47.00;29.00
80861;PMS5003;71798;54.942;73.444;2024-02-26T12:02:38;65.00;49.00;30.00
80861;PMS5003;71798;54.942;73.444;2024-02-26T12:05:11;64.75;47.50;28.75
80861;PMS5003;71798;54.942;73.444;2024-02-26T12:07:45;64.00;48.00;29.00
80861;PMS5003;71798;54.942;73.444;2024-02-26T12:12:46;59.00;45.75;28.50
80861;PMS5003;71798;54.942;73.444;2024-02-26T12:15:13;35.25;28.25;17.75
80861;PMS5003;71798;54.942;73.444;2024-02-26T12:17:50;46.75;37.00;23.00
80861;PMS5003;71798;54.942;73.444;2024-02-26T12:20:17;44.00;34.75;20.75
80861;PMS5003;71798;54.942;73.444;2024-02-26T12:22:59;32.00;27.00;17.00
80861;PMS5003;71798;54.942;73.444;2024-02-26T12:25:43;43.25;35.00;22.00
80861;PMS5003;71798;54.942;73.444;2024-02-26T12:28:30;39.75;32.00;21.00
80861;PMS5003;71798;54.942;73.444;2024-02-26T12:30:57;46.00;36.00;22.00
80861;PMS5003;71798;54.942;73.444;2024-02-26T12:33:25;47.50;39.25;24.00
80861;PMS5003;71798;54.942;73.444;2024-02-26T12:35:53;47.75;38.25;24.25
80861;PMS5003;71798;54.942;73.444;2024-02-26T12:38:19;53.25;41.25;25.25
80861;PMS5003;71798;54.942;73.444;2024-02-26T12:40:45;59.25;46.75;30.00
80861;PMS5003;71798;54.942;73.444;2024-02-26T12:43:15;64.00;49.25;30.00
80861;PMS5003;71798;54.942;73.444;2024-02-26T12:45:42;72.00;57.00;34.00
80861;PMS5003;71798;54.942;73.444;2024-02-26T12:48:12;93.25;76.50;46.00
80861;PMS5003;71798;54.942;73.444;2024-02-26T12:50:38;91.00;74.00;44.00
80861;PMS5003;71798;54.942;73.444;2024-02-26T12:53:04;77.00;62.00;39.00
80861;PMS5003;71798;54.942;73.444;2024-02-26T12:55:31;78.50;63.50;37.75
80861;PMS5003;71798;54.942;73.444;2024-02-26T12:58:00;65.50;50.00;31.00
80861;PMS5003;71798;54.942;73.444;2024-02-26T13:00:27;82.00;67.00;40.00
80861;PMS5003;71798;54.942;73.444;2024-02-26T13:02:54;76.75;62.00;37.25
80861;PMS5003;71798;54.942;73.444;2024-02-26T13:05:41;91.00;73.00;41.50
80861;PMS5003;71798;54.942;73.444;2024-02-26T13:08:07;68.50;53.00;33.25
80861;PMS5003;71798;54.942;73.444;2024-02-26T13:10:33;79.00;67.00;40.00
80861;PMS5003;71798;54.942;73.444;2024-02-26T13:13:17;63.50;48.50;31.00
80861;PMS5003;71798;54.942;73.444;2024-02-26T13:16:06;62.00;48.25;31.00
80861;PMS5003;71798;54.942;73.444;2024-02-26T13:18:34;70.25;54.50;34.00
80861;PMS5003;71798;54.942;73.444;2024-02-26T13:21:07;57.00;45.00;28.00
80861;PMS5003;71798;54.942;73.444;2024-02-26T13:23:34;70.00;53.00;32.25
80861;PMS5003;71798;54.942;73.444;2024-02-26T13:26:15;66.75;50.75;31.50
80861;PMS5003;71798;54.942;73.444;2024-02-26T13:28:41;50.00;39.00;23.00
80861;PMS5003;71798;54.942;73.444;2024-02-26T13:31:08;61.00;47.50;30.25
80861;PMS5003;71798;54.942;73.444;2024-02-26T13:33:34;62.50;48.75;29.50
80861;PMS5003;71798;54.942;73.444;2024-02-26T13:36:00;58.50;46.00;30.00
80861;PMS5003;71798;54.942;73.444;2024-02-26T13:38:27;68.00;52.00;33.00
80861;PMS5003;71798;54.942;73.444;2024-02-26T13:40:54;71.50;54.50;32.75
80861;PMS5003;71798;54.942;73.444;2024-02-26T13:43:40;60.00;47.00;30.00
80861;PMS5003;71798;54.942;73.444;2024-02-26T13:46:07;66.75;51.00;31.25
80861;PMS5003;71798;54.942;73.444;2024-02-26T13:48:34;104.75;84.00;48.50
80861;PMS5003;71798;54.942;73.444;2024-02-26T13:51:00;80.00;65.50;39.00
80861;PMS5003;71798;54.942;73.444;2024-02-26T13:53:26;81.00;68.00;39.00
80861;PMS5003;71798;54.942;73.444;2024-02-26T13:56:12;77.00;60.00;36.75
80861;PMS5003;71798;54.942;73.444;2024-02-26T13:58:39;70.75;56.25;34.25
80861;PMS5003;71798;54.942;73.444;2024-02-26T14:01:05;77.25;63.00;37.25
80861;PMS5003;71798;54.942;73.444;2024-02-26T14:03:31;77.75;64.00;37.00
80861;PMS5003;71798;54.942;73.444;2024-02-26T14:05:57;83.00;68.25;40.00
80861;PMS5003;71798;54.942;73.444;2024-02-26T14:08:24;84.75;70.75;42.75
80861;PMS5003;71798;54.942;73.444;2024-02-26T14:10:50;75.00;60.50;35.25
80861;PMS5003;71798;54.942;73.444;2024-02-26T14:13:16;74.75;59.75;35.25
80861;PMS5003;71798;54.942;73.444;2024-02-26T14:15:43;63.25;49.00;30.00
80861;PMS5003;71798;54.942;73.444;2024-02-26T14:18:09;67.00;52.00;30.00
80861;PMS5003;71798;54.942;73.444;2024-02-26T14:20:35;57.00;45.00;27.75
80861;PMS5003;71798;54.942;73.444;2024-02-26T14:23:02;62.25;46.50;27.00
80861;PMS5003;71798;54.942;73.444;2024-02-26T14:25:28;60.25;46.25;28.25
80861;PMS5003;71798;54.942;73.444;2024-02-26T14:27:54;90.75;73.25;38.50
80861;PMS5003;71798;54.942;73.444;2024-02-26T14:30:21;56.75;43.00;25.00
80861;PMS5003;71798;54.942;73.444;2024-02-26T14:32:47;77.25;60.00;33.00
80861;PMS5003;71798;54.942;73.444;2024-02-26T14:35:14;66.00;49.00;29.00
80861;PMS5003;71798;54.942;73.444;2024-02-26T14:37:40;82.25;67.00;35.00
80861;PMS5003;71798;54.942;73.444;2024-02-26T14:40:07;74.50;58.00;34.00
80861;PMS5003;71798;54.942;73.444;2024-02-26T14:42:34;66.00;51.25;31.00
80861;PMS5003;71798;54.942;73.444;2024-02-26T14:45:00;63.75;49.75;30.00
80861;PMS5003;71798;54.942;73.444;2024-02-26T14:47:26;63.75;48.50;29.00
80861;PMS5003;71798;54.942;73.444;2024-02-26T14:49:53;62.75;48.00;30.00
80861;PMS5003;71798;54.942;73.444;2024-02-26T14:52:19;69.00;52.00;32.00
80861;PMS5003;71798;54.942;73.444;2024-02-26T14:54:45;76.00;59.25;35.00
80861;PMS5003;71798;54.942;73.444;2024-02-26T14:57:11;71.50;55.25;32.50
80861;PMS5003;71798;54.942;73.444;2024-02-26T14:59:38;71.25;54.50;31.50
80861;PMS5003;71798;54.942;73.444;2024-02-26T15:02:04;59.75;46.75;28.50
80861;PMS5003;71798;54.942;73.444;2024-02-26T15:04:32;69.50;54.25;33.00
80861;PMS5003;71798;54.942;73.444;2024-02-26T15:06:58;69.00;54.00;32.00
80861;PMS5003;71798;54.942;73.444;2024-02-26T15:09:24;73.75;58.25;35.75
80861;PMS5003;71798;54.942;73.444;2024-02-26T15:11:50;67.50;52.50;31.75
80861;PMS5003;71798;54.942;73.444;2024-02-26T15:14:16;67.00;50.75;30.50
80861;PMS5003;71798;54.942;73.444;2024-02-26T15:16:43;69.00;54.00;33.00
80861;PMS5003;71798;54.942;73.444;2024-02-26T15:19:10;71.75;55.25;34.00
80861;PMS5003;71798;54.942;73.444;2024-02-26T15:21:45;76.00;59.75;34.50
80861;PMS5003;71798;54.942;73.444;2024-02-26T15:24:12;70.00;54.00;32.00
80861;PMS5003;71798;54.942;73.444;2024-02-26T15:26:38;75.50;60.00;35.00
80861;PMS5003;71798;54.942;73.444;2024-02-26T15:29:06;81.00;64.50;36.50
80861;PMS5003;71798;54.942;73.444;2024-02-26T15:31:35;74.50;59.50;35.00
80861;PMS5003;71798;54.942;73.444;2024-02-26T15:34:01;64.00;47.75;27.75
80861;PMS5003;71798;54.942;73.444;2024-02-26T15:36:28;49.75;39.25;24.00
80861;PMS5003;71798;54.942;73.444;2024-02-26T15:38:55;68.00;51.00;30.00
80861;PMS5003;71798;54.942;73.444;2024-02-26T15:41:21;68.50;53.00;32.00
80861;PMS5003;71798;54.942;73.444;2024-02-26T15:44:07;67.00;52.50;32.00
80861;PMS5003;71798;54.942;73.444;2024-02-26T15:46:38;70.00;53.75;33.00
80861;PMS5003;71798;54.942;73.444;2024-02-26T15:49:04;71.50;55.00;33.00
80861;PMS5003;71798;54.942;73.444;2024-02-26T15:51:30;62.00;48.00;30.00
80861;PMS5003;71798;54.942;73.444;2024-02-26T15:53:57;73.50;59.00;34.00
80861;PMS5003;71798;54.942;73.444;2024-02-26T15:56:24;59.50;46.25;27.00
80861;PMS5003;71798;54.942;73.444;2024-02-26T15:58:51;64.25;49.25;31.00
80861;PMS5003;71798;54.942;73.444;2024-02-26T16:01:17;61.75;47.75;29.00
80861;PMS5003;71798;54.942;73.444;2024-02-26T16:03:43;68.25;53.25;31.50
80861;PMS5003;71798;54.942;73.444;2024-02-26T16:06:14;70.25;53.25;33.50
80861;PMS5003;71798;54.942;73.444;2024-02-26T16:08:42;73.50;56.75;33.75
80861;PMS5003;71798;54.942;73.444;2024-02-26T16:11:09;75.25;59.50;35.00
80861;PMS5003;71798;54.942;73.444;2024-02-26T16:13:35;70.75;55.00;33.00
80861;PMS5003;71798;54.942;73.444;2024-02-26T16:16:03;76.00;59.00;35.00
80861;PMS5003;71798;54.942;73.444;2024-02-26T16:18:30;72.00;57.00;35.00
80861;PMS5003;71798;54.942;73.444;2024-02-26T16:20:56;71.50;56.00;34.00
80861;PMS5003;71798;54.942;73.444;2024-02-26T16:23:23;77.50;61.25;38.00
80861;PMS5003;71798;54.942;73.444;2024-02-26T16:26:03;74.00;57.00;33.75
80861;PMS5003;71798;54.942;73.444;2024-02-26T16:28:30;87.25;72.25;39.75
80861;PMS5003;71798;54.942;73.444;2024-02-26T16:30:56;102.75;83.50;47.25
80861;PMS5003;71798;54.942;73.444;2024-02-26T16:33:22;102.75;84.75;48.50
80861;PMS5003;71798;54.942;73.444;2024-02-26T16:35:49;88.75;76.50;42.50
80861;PMS5003;71798;54.942;73.444;2024-02-26T16:38:15;109.50;91.50;53.50
80861;PMS5003;71798;54.942;73.444;2024-02-26T16:40:42;111.50;94.50;56.75
80861;PMS5003;71798;54.942;73.444;2024-02-26T16:43:08;103.00;85.50;49.75
80861;PMS5003;71798;54.942;73.444;2024-02-26T16:45:34;75.50;61.50;37.25
80861;PMS5003;71798;54.942;73.444;2024-02-26T16:48:00;61.50;48.25;31.00
80861;PMS5003;71798;54.942;73.444;2024-02-26T16:50:27;59.75;47.00;29.00
80861;PMS5003;71798;54.942;73.444;2024-02-26T16:52:53;57.50;45.00;27.75
80861;PMS5003;71798;54.942;73.444;2024-02-26T16:55:20;48.00;39.00;24.00
80861;PMS5003;71798;54.942;73.444;2024-02-26T16:57:46;46.00;37.25;23.00
80861;PMS5003;71798;54.942;73.444;2024-02-26T17:00:12;42.00;34.75;21.00
80861;PMS5003;71798;54.942;73.444;2024-02-26T17:02:41;41.00;33.00;20.00
80861;PMS5003;71798;54.942;73.444;2024-02-26T17:05:07;39.75;30.50;17.25